sensor_id;sensor_type;location;lat;lon;timestamp;temperature;humidity
66928;DHT22;59882;45.624;11.698;2024-01-30T00:01:28;1.40;76.30
66928;DHT22;59882;45.624;11.698;2024-01-30T00:03:54;1.40;76.40
66928;DHT22;59882;45.624;11.698;2024-01-30T00:06:20;1.30;76.50
66928;DHT22;59882;45.624;11.698;2024-01-30T00:08:49;1.30;76.80
66928;DHT22;59882;45.624;11.698;2024-01-30T00:11:16;1.20;77.00
66928;DHT22;59882;45.624;11.698;2024-01-30T00:13:41;1.20;77.40
66928;DHT22;59882;45.624;11.698;2024-01-30T00:16:07;1.10;77.80
66928;DHT22;59882;45.624;11.698;2024-01-30T00:18:34;1.10;78.00
66928;DHT22;59882;45.624;11.698;2024-01-30T00:21:00;1.10;78.10
66928;DHT22;59882;45.624;11.698;2024-01-30T00:23:25;1.00;78.40
66928;DHT22;59882;45.624;11.698;2024-01-30T00:25:51;1.10;78.30
66928;DHT22;59882;45.624;11.698;2024-01-30T00:28:17;1.10;78.30
66928;DHT22;59882;45.624;11.698;2024-01-30T00:30:42;1.10;78.20
66928;DHT22;59882;45.624;11.698;2024-01-30T00:33:09;1.10;78.20
66928;DHT22;59882;45.624;11.698;2024-01-30T00:35:34;1.10;78.40
66928;DHT22;59882;45.624;11.698;2024-01-30T00:38:00;1.10;78.70
66928;DHT22;59882;45.624;11.698;2024-01-30T00:40:26;1.10;78.80
66928;DHT22;59882;45.624;11.698;2024-01-30T00:42:51;1.10;78.80
66928;DHT22;59882;45.624;11.698;2024-01-30T00:45:17;1.10;78.90
66928;DHT22;59882;45.624;11.698;2024-01-30T00:47:43;1.10;78.90
66928;DHT22;59882;45.624;11.698;2024-01-30T00:50:09;1.10;78.50
66928;DHT22;59882;45.624;11.698;2024-01-30T00:52:35;1.20;78.30
66928;DHT22;59882;45.624;11.698;2024-01-30T00:55:01;1.20;78.10
66928;DHT22;59882;45.624;11.698;2024-01-30T00:57:28;1.30;78.00
66928;DHT22;59882;45.624;11.698;2024-01-30T00:59:54;1.30;77.80
66928;DHT22;59882;45.624;11.698;2024-01-30T01:02:19;1.30;77.80
66928;DHT22;59882;45.624;11.698;2024-01-30T01:04:45;1.30;77.90
66928;DHT22;59882;45.624;11.698;2024-01-30T01:07:11;1.30;77.80
66928;DHT22;59882;45.624;11.698;2024-01-30T01:09:37;1.30;77.80
66928;DHT22;59882;45.624;11.698;2024-01-30T01:12:03;1.20;77.70
66928;DHT22;59882;45.624;11.698;2024-01-30T01:14:29;1.20;77.70
66928;DHT22;59882;45.624;11.698;2024-01-30T01:16:54;1.20;77.70
66928;DHT22;59882;45.624;11.698;2024-01-30T01:19:20;1.20;77.60
66928;DHT22;59882;45.624;11.698;2024-01-30T01:21:46;1.20;77.80
66928;DHT22;59882;45.624;11.698;2024-01-30T01:24:11;1.10;77.90
66928;DHT22;59882;45.624;11.698;2024-01-30T01:26:37;1.20;77.60
66928;DHT22;59882;45.624;11.698;2024-01-30T01:29:02;1.10;77.70
66928;DHT22;59882;45.624;11.698;2024-01-30T01:31:38;1.10;77.70
66928;DHT22;59882;45.624;11.698;2024-01-30T01:34:13;1.00;77.60
66928;DHT22;59882;45.624;11.698;2024-01-30T01:36:39;1.00;77.80
66928;DHT22;59882;45.624;11.698;2024-01-30T01:39:04;1.00;77.60
66928;DHT22;59882;45.624;11.698;2024-01-30T01:41:33;1.00;77.50
66928;DHT22;59882;45.624;11.698;2024-01-30T01:43:59;1.00;77.50
66928;DHT22;59882;45.624;11.698;2024-01-30T01:46:30;0.90;77.50
66928;DHT22;59882;45.624;11.698;2024-01-30T01:48:58;0.90;77.50
66928;DHT22;59882;45.624;11.698;2024-01-30T01:51:27;1.00;77.70
66928;DHT22;59882;45.624;11.698;2024-01-30T01:53:57;0.90;77.40
66928;DHT22;59882;45.624;11.698;2024-01-30T01:56:23;0.80;77.20
66928;DHT22;59882;45.624;11.698;2024-01-30T01:58:50;0.80;77.20
66928;DHT22;59882;45.624;11.698;2024-01-30T02:01:19;0.70;77.20
66928;DHT22;59882;45.624;11.698;2024-01-30T02:03:46;0.60;77.20
66928;DHT22;59882;45.624;11.698;2024-01-30T02:06:16;0.60;77.30
66928;DHT22;59882;45.624;11.698;2024-01-30T02:08:41;0.60;77.70
66928;DHT22;59882;45.624;11.698;2024-01-30T02:11:07;0.50;78.00
66928;DHT22;59882;45.624;11.698;2024-01-30T02:13:33;0.50;78.20
66928;DHT22;59882;45.624;11.698;2024-01-30T02:15:59;0.40;78.30
66928;DHT22;59882;45.624;11.698;2024-01-30T02:18:26;0.40;78.40
66928;DHT22;59882;45.624;11.698;2024-01-30T02:20:54;0.40;78.70
66928;DHT22;59882;45.624;11.698;2024-01-30T02:23:23;0.30;78.90
66928;DHT22;59882;45.624;11.698;2024-01-30T02:25:49;0.30;81.20
66928;DHT22;59882;45.624;11.698;2024-01-30T02:28:15;0.40;81.00
66928;DHT22;59882;45.624;11.698;2024-01-30T02:30:43;0.30;81.00
66928;DHT22;59882;45.624;11.698;2024-01-30T02:33:08;0.30;81.10
66928;DHT22;59882;45.624;11.698;2024-01-30T02:35:34;0.30;80.60
66928;DHT22;59882;45.624;11.698;2024-01-30T02:37:59;0.30;80.70
66928;DHT22;59882;45.624;11.698;2024-01-30T02:40:25;0.30;80.50
66928;DHT22;59882;45.624;11.698;2024-01-30T02:42:51;0.30;80.00
66928;DHT22;59882;45.624;11.698;2024-01-30T02:45:17;0.30;80.10
66928;DHT22;59882;45.624;11.698;2024-01-30T02:47:42;0.30;80.50
66928;DHT22;59882;45.624;11.698;2024-01-30T02:50:08;0.30;80.50
66928;DHT22;59882;45.624;11.698;2024-01-30T02:52:34;0.40;81.00
66928;DHT22;59882;45.624;11.698;2024-01-30T02:55:00;0.30;81.50
66928;DHT22;59882;45.624;11.698;2024-01-30T02:57:25;0.30;81.40
66928;DHT22;59882;45.624;11.698;2024-01-30T02:59:51;0.30;81.50
66928;DHT22;59882;45.624;11.698;2024-01-30T03:02:17;0.30;81.50
66928;DHT22;59882;45.624;11.698;2024-01-30T03:04:43;0.40;81.50
66928;DHT22;59882;45.624;11.698;2024-01-30T03:07:09;0.40;81.50
66928;DHT22;59882;45.624;11.698;2024-01-30T03:09:36;0.40;81.40
66928;DHT22;59882;45.624;11.698;2024-01-30T03:12:01;0.40;81.10
66928;DHT22;59882;45.624;11.698;2024-01-30T03:14:27;0.40;81.00
66928;DHT22;59882;45.624;11.698;2024-01-30T03:16:52;0.40;81.00
66928;DHT22;59882;45.624;11.698;2024-01-30T03:19:18;0.40;81.20
66928;DHT22;59882;45.624;11.698;2024-01-30T03:21:44;0.40;81.20
66928;DHT22;59882;45.624;11.698;2024-01-30T03:24:10;0.30;81.30
66928;DHT22;59882;45.624;11.698;2024-01-30T03:26:35;0.40;81.10
66928;DHT22;59882;45.624;11.698;2024-01-30T03:29:01;0.40;81.00
66928;DHT22;59882;45.624;11.698;2024-01-30T03:31:27;0.40;81.00
66928;DHT22;59882;45.624;11.698;2024-01-30T03:33:52;0.40;80.90
66928;DHT22;59882;45.624;11.698;2024-01-30T03:36:18;0.40;80.90
66928;DHT22;59882;45.624;11.698;2024-01-30T03:38:44;0.40;80.70
66928;DHT22;59882;45.624;11.698;2024-01-30T03:41:09;0.40;80.60
66928;DHT22;59882;45.624;11.698;2024-01-30T03:43:36;0.40;80.70
66928;DHT22;59882;45.624;11.698;2024-01-30T03:46:02;0.40;80.90
66928;DHT22;59882;45.624;11.698;2024-01-30T03:48:29;0.40;80.90
66928;DHT22;59882;45.624;11.698;2024-01-30T03:50:54;0.40;80.70
66928;DHT22;59882;45.624;11.698;2024-01-30T03:53:21;0.40;80.80
66928;DHT22;59882;45.624;11.698;2024-01-30T03:55:47;0.30;80.70
66928;DHT22;59882;45.624;11.698;2024-01-30T03:58:13;0.30;80.60
66928;DHT22;59882;45.624;11.698;2024-01-30T04:00:38;0.40;80.60
66928;DHT22;59882;45.624;11.698;2024-01-30T04:03:04;0.40;80.60
66928;DHT22;59882;45.624;11.698;2024-01-30T04:05:30;0.30;80.60
66928;DHT22;59882;45.624;11.698;2024-01-30T04:07:56;0.30;80.40
66928;DHT22;59882;45.624;11.698;2024-01-30T04:10:21;0.30;80.60
66928;DHT22;59882;45.624;11.698;2024-01-30T04:12:47;0.30;80.80
66928;DHT22;59882;45.624;11.698;2024-01-30T04:15:13;0.30;80.80
66928;DHT22;59882;45.624;11.698;2024-01-30T04:17:40;0.30;80.80
66928;DHT22;59882;45.624;11.698;2024-01-30T04:20:06;0.30;81.20
66928;DHT22;59882;45.624;11.698;2024-01-30T04:22:31;0.30;81.40
66928;DHT22;59882;45.624;11.698;2024-01-30T04:24:57;0.30;81.60
66928;DHT22;59882;45.624;11.698;2024-01-30T04:27:23;0.20;81.50
66928;DHT22;59882;45.624;11.698;2024-01-30T04:29:48;0.20;81.40
66928;DHT22;59882;45.624;11.698;2024-01-30T04:32:14;0.20;81.50
66928;DHT22;59882;45.624;11.698;2024-01-30T04:34:40;0.20;81.50
66928;DHT22;59882;45.624;11.698;2024-01-30T04:37:05;0.20;81.40
66928;DHT22;59882;45.624;11.698;2024-01-30T04:39:33;0.20;81.40
66928;DHT22;59882;45.624;11.698;2024-01-30T04:41:58;0.20;81.20
66928;DHT22;59882;45.624;11.698;2024-01-30T04:44:24;0.20;81.00
66928;DHT22;59882;45.624;11.698;2024-01-30T04:46:50;0.20;80.90
66928;DHT22;59882;45.624;11.698;2024-01-30T04:49:16;0.30;80.90
66928;DHT22;59882;45.624;11.698;2024-01-30T04:51:41;0.30;80.70
66928;DHT22;59882;45.624;11.698;2024-01-30T04:54:07;0.30;80.60
66928;DHT22;59882;45.624;11.698;2024-01-30T04:56:33;0.30;80.50
66928;DHT22;59882;45.624;11.698;2024-01-30T04:58:58;0.30;80.40
66928;DHT22;59882;45.624;11.698;2024-01-30T05:01:24;0.30;80.40
66928;DHT22;59882;45.624;11.698;2024-01-30T05:03:50;0.30;80.40
66928;DHT22;59882;45.624;11.698;2024-01-30T05:06:24;0.30;80.40
66928;DHT22;59882;45.624;11.698;2024-01-30T05:08:50;0.20;80.30
66928;DHT22;59882;45.624;11.698;2024-01-30T05:11:16;0.30;80.20
66928;DHT22;59882;45.624;11.698;2024-01-30T05:13:42;0.30;80.20
66928;DHT22;59882;45.624;11.698;2024-01-30T05:16:07;0.30;80.10
66928;DHT22;59882;45.624;11.698;2024-01-30T05:18:33;0.30;80.00
66928;DHT22;59882;45.624;11.698;2024-01-30T05:20:58;0.30;80.00
66928;DHT22;59882;45.624;11.698;2024-01-30T05:23:25;0.20;80.00
66928;DHT22;59882;45.624;11.698;2024-01-30T05:25:50;0.30;80.00
66928;DHT22;59882;45.624;11.698;2024-01-30T05:28:16;0.20;79.90
66928;DHT22;59882;45.624;11.698;2024-01-30T05:30:42;0.20;79.90
66928;DHT22;59882;45.624;11.698;2024-01-30T05:33:08;0.20;80.00
66928;DHT22;59882;45.624;11.698;2024-01-30T05:35:33;0.20;80.10
66928;DHT22;59882;45.624;11.698;2024-01-30T05:37:59;0.20;80.20
66928;DHT22;59882;45.624;11.698;2024-01-30T05:40:24;0.20;80.20
66928;DHT22;59882;45.624;11.698;2024-01-30T05:42:50;0.20;80.20
66928;DHT22;59882;45.624;11.698;2024-01-30T05:45:16;0.20;80.40
66928;DHT22;59882;45.624;11.698;2024-01-30T05:47:41;0.20;80.80
66928;DHT22;59882;45.624;11.698;2024-01-30T05:50:07;0.20;80.80
66928;DHT22;59882;45.624;11.698;2024-01-30T05:52:33;0.20;80.70
66928;DHT22;59882;45.624;11.698;2024-01-30T05:54:58;0.20;80.50
66928;DHT22;59882;45.624;11.698;2024-01-30T05:57:24;0.20;80.40
66928;DHT22;59882;45.624;11.698;2024-01-30T05:59:50;0.20;80.40
66928;DHT22;59882;45.624;11.698;2024-01-30T06:02:17;0.30;80.20
66928;DHT22;59882;45.624;11.698;2024-01-30T06:04:43;0.30;80.10
66928;DHT22;59882;45.624;11.698;2024-01-30T06:07:09;0.30;80.10
66928;DHT22;59882;45.624;11.698;2024-01-30T06:09:35;0.30;80.10
66928;DHT22;59882;45.624;11.698;2024-01-30T06:12:01;0.30;80.00
66928;DHT22;59882;45.624;11.698;2024-01-30T06:14:26;0.30;80.00
66928;DHT22;59882;45.624;11.698;2024-01-30T06:16:52;0.30;80.00
66928;DHT22;59882;45.624;11.698;2024-01-30T06:19:17;0.20;79.90
66928;DHT22;59882;45.624;11.698;2024-01-30T06:21:43;0.20;79.90
66928;DHT22;59882;45.624;11.698;2024-01-30T06:24:09;0.20;79.90
66928;DHT22;59882;45.624;11.698;2024-01-30T06:26:35;0.20;79.90
66928;DHT22;59882;45.624;11.698;2024-01-30T06:29:01;0.20;79.90
66928;DHT22;59882;45.624;11.698;2024-01-30T06:31:26;0.20;79.90
66928;DHT22;59882;45.624;11.698;2024-01-30T06:33:52;0.20;79.90
66928;DHT22;59882;45.624;11.698;2024-01-30T06:36:18;0.20;80.00
66928;DHT22;59882;45.624;11.698;2024-01-30T06:38:44;0.20;80.10
66928;DHT22;59882;45.624;11.698;2024-01-30T06:41:09;0.20;80.00
66928;DHT22;59882;45.624;11.698;2024-01-30T06:43:35;0.30;80.10
66928;DHT22;59882;45.624;11.698;2024-01-30T06:46:01;0.30;80.00
66928;DHT22;59882;45.624;11.698;2024-01-30T06:48:26;0.20;80.00
66928;DHT22;59882;45.624;11.698;2024-01-30T06:50:55;0.20;79.90
66928;DHT22;59882;45.624;11.698;2024-01-30T06:53:20;0.20;79.90
66928;DHT22;59882;45.624;11.698;2024-01-30T06:55:46;0.20;79.80
66928;DHT22;59882;45.624;11.698;2024-01-30T06:58:12;0.20;79.80
66928;DHT22;59882;45.624;11.698;2024-01-30T07:00:37;0.30;79.80
66928;DHT22;59882;45.624;11.698;2024-01-30T07:03:03;0.30;79.70
66928;DHT22;59882;45.624;11.698;2024-01-30T07:05:29;0.30;79.60
66928;DHT22;59882;45.624;11.698;2024-01-30T07:07:55;0.30;79.50
66928;DHT22;59882;45.624;11.698;2024-01-30T07:10:20;0.30;79.60
66928;DHT22;59882;45.624;11.698;2024-01-30T07:12:46;0.30;79.60
66928;DHT22;59882;45.624;11.698;2024-01-30T07:15:12;0.30;79.60
66928;DHT22;59882;45.624;11.698;2024-01-30T07:17:40;0.30;79.50
66928;DHT22;59882;45.624;11.698;2024-01-30T07:20:06;0.30;79.50
66928;DHT22;59882;45.624;11.698;2024-01-30T07:22:33;0.30;79.70
66928;DHT22;59882;45.624;11.698;2024-01-30T07:24:59;0.30;79.70
66928;DHT22;59882;45.624;11.698;2024-01-30T07:27:24;0.30;79.50
66928;DHT22;59882;45.624;11.698;2024-01-30T07:29:50;0.30;79.60
66928;DHT22;59882;45.624;11.698;2024-01-30T07:32:16;0.40;79.50
66928;DHT22;59882;45.624;11.698;2024-01-30T07:34:41;0.30;79.50
66928;DHT22;59882;45.624;11.698;2024-01-30T07:37:07;0.40;79.70
66928;DHT22;59882;45.624;11.698;2024-01-30T07:39:34;0.40;79.60
66928;DHT22;59882;45.624;11.698;2024-01-30T07:42:00;0.40;79.70
66928;DHT22;59882;45.624;11.698;2024-01-30T07:44:25;0.40;79.80
66928;DHT22;59882;45.624;11.698;2024-01-30T07:46:51;0.40;79.60
66928;DHT22;59882;45.624;11.698;2024-01-30T07:49:17;0.50;79.50
66928;DHT22;59882;45.624;11.698;2024-01-30T07:51:42;0.50;79.40
66928;DHT22;59882;45.624;11.698;2024-01-30T07:54:12;0.60;79.50
66928;DHT22;59882;45.624;11.698;2024-01-30T07:56:40;0.60;79.50
66928;DHT22;59882;45.624;11.698;2024-01-30T07:59:10;0.60;79.50
66928;DHT22;59882;45.624;11.698;2024-01-30T08:01:36;0.60;79.90
66928;DHT22;59882;45.624;11.698;2024-01-30T08:04:02;0.60;80.00
66928;DHT22;59882;45.624;11.698;2024-01-30T08:06:27;0.60;80.20
66928;DHT22;59882;45.624;11.698;2024-01-30T08:08:53;0.70;80.20
66928;DHT22;59882;45.624;11.698;2024-01-30T08:11:21;0.60;80.10
66928;DHT22;59882;45.624;11.698;2024-01-30T08:13:55;0.70;79.90
66928;DHT22;59882;45.624;11.698;2024-01-30T08:16:20;0.80;80.00
66928;DHT22;59882;45.624;11.698;2024-01-30T08:18:46;0.80;80.40
66928;DHT22;59882;45.624;11.698;2024-01-30T08:21:12;0.80;80.50
66928;DHT22;59882;45.624;11.698;2024-01-30T08:23:40;0.80;80.30
66928;DHT22;59882;45.624;11.698;2024-01-30T08:26:06;0.90;79.90
66928;DHT22;59882;45.624;11.698;2024-01-30T08:28:32;1.00;79.90
66928;DHT22;59882;45.624;11.698;2024-01-30T08:30:58;1.10;79.80
66928;DHT22;59882;45.624;11.698;2024-01-30T08:33:24;1.10;79.70
66928;DHT22;59882;45.624;11.698;2024-01-30T08:35:49;1.20;79.50
66928;DHT22;59882;45.624;11.698;2024-01-30T08:38:15;1.30;79.50
66928;DHT22;59882;45.624;11.698;2024-01-30T08:40:40;1.30;79.50
66928;DHT22;59882;45.624;11.698;2024-01-30T08:43:06;1.40;79.30
66928;DHT22;59882;45.624;11.698;2024-01-30T08:45:32;1.40;79.20
66928;DHT22;59882;45.624;11.698;2024-01-30T08:47:57;1.50;79.30
66928;DHT22;59882;45.624;11.698;2024-01-30T08:50:23;1.60;79.50
66928;DHT22;59882;45.624;11.698;2024-01-30T08:52:48;1.60;79.40
66928;DHT22;59882;45.624;11.698;2024-01-30T08:55:14;1.70;79.40
66928;DHT22;59882;45.624;11.698;2024-01-30T08:57:39;1.70;79.70
66928;DHT22;59882;45.624;11.698;2024-01-30T09:00:06;1.80;79.70
66928;DHT22;59882;45.624;11.698;2024-01-30T09:02:34;1.80;79.90
66928;DHT22;59882;45.624;11.698;2024-01-30T09:05:00;1.90;80.00
66928;DHT22;59882;45.624;11.698;2024-01-30T09:07:25;1.90;79.70
66928;DHT22;59882;45.624;11.698;2024-01-30T09:09:51;2.00;79.80
66928;DHT22;59882;45.624;11.698;2024-01-30T09:12:17;2.10;80.10
66928;DHT22;59882;45.624;11.698;2024-01-30T09:14:42;2.10;80.20
66928;DHT22;59882;45.624;11.698;2024-01-30T09:17:08;2.20;80.20
66928;DHT22;59882;45.624;11.698;2024-01-30T09:19:34;2.30;79.70
66928;DHT22;59882;45.624;11.698;2024-01-30T09:21:59;2.40;79.50
66928;DHT22;59882;45.624;11.698;2024-01-30T09:24:26;2.40;79.50
66928;DHT22;59882;45.624;11.698;2024-01-30T09:26:52;2.50;79.60
66928;DHT22;59882;45.624;11.698;2024-01-30T09:29:18;2.60;79.60
66928;DHT22;59882;45.624;11.698;2024-01-30T09:31:46;2.70;79.20
66928;DHT22;59882;45.624;11.698;2024-01-30T09:34:12;2.80;79.10
66928;DHT22;59882;45.624;11.698;2024-01-30T09:36:38;2.80;79.30
66928;DHT22;59882;45.624;11.698;2024-01-30T09:39:04;2.90;79.60
66928;DHT22;59882;45.624;11.698;2024-01-30T09:41:32;2.90;79.80
66928;DHT22;59882;45.624;11.698;2024-01-30T09:43:59;3.00;79.60
66928;DHT22;59882;45.624;11.698;2024-01-30T09:46:28;3.10;79.90
66928;DHT22;59882;45.624;11.698;2024-01-30T09:48:57;3.20;80.00
66928;DHT22;59882;45.624;11.698;2024-01-30T09:51:23;3.30;79.30
66928;DHT22;59882;45.624;11.698;2024-01-30T09:53:49;3.40;79.10
66928;DHT22;59882;45.624;11.698;2024-01-30T09:56:15;3.50;79.00
66928;DHT22;59882;45.624;11.698;2024-01-30T09:58:42;3.60;78.70
66928;DHT22;59882;45.624;11.698;2024-01-30T10:01:07;3.60;78.40
66928;DHT22;59882;45.624;11.698;2024-01-30T10:03:33;3.80;78.20
66928;DHT22;59882;45.624;11.698;2024-01-30T10:05:59;3.80;78.30
66928;DHT22;59882;45.624;11.698;2024-01-30T10:08:26;3.90;78.30
66928;DHT22;59882;45.624;11.698;2024-01-30T10:10:52;4.00;78.00
66928;DHT22;59882;45.624;11.698;2024-01-30T10:13:18;4.10;77.80
66928;DHT22;59882;45.624;11.698;2024-01-30T10:15:44;4.20;77.70
66928;DHT22;59882;45.624;11.698;2024-01-30T10:18:10;4.30;77.70
66928;DHT22;59882;45.624;11.698;2024-01-30T10:20:36;4.40;77.50
66928;DHT22;59882;45.624;11.698;2024-01-30T10:23:03;4.50;77.70
66928;DHT22;59882;45.624;11.698;2024-01-30T10:25:30;4.60;77.40
66928;DHT22;59882;45.624;11.698;2024-01-30T10:27:56;4.70;77.30
66928;DHT22;59882;45.624;11.698;2024-01-30T10:30:22;4.80;77.10
66928;DHT22;59882;45.624;11.698;2024-01-30T10:32:48;4.90;77.20
66928;DHT22;59882;45.624;11.698;2024-01-30T10:35:15;5.00;77.20
66928;DHT22;59882;45.624;11.698;2024-01-30T10:37:43;5.10;77.20
66928;DHT22;59882;45.624;11.698;2024-01-30T10:40:12;5.10;77.20
66928;DHT22;59882;45.624;11.698;2024-01-30T10:42:43;5.20;77.50
66928;DHT22;59882;45.624;11.698;2024-01-30T10:45:13;5.30;77.50
66928;DHT22;59882;45.624;11.698;2024-01-30T10:47:53;5.30;77.20
66928;DHT22;59882;45.624;11.698;2024-01-30T10:50:20;5.40;77.00
66928;DHT22;59882;45.624;11.698;2024-01-30T10:52:46;5.40;76.70
66928;DHT22;59882;45.624;11.698;2024-01-30T10:55:14;5.50;76.60
66928;DHT22;59882;45.624;11.698;2024-01-30T10:57:41;5.70;76.30
66928;DHT22;59882;45.624;11.698;2024-01-30T11:00:08;5.70;75.80
66928;DHT22;59882;45.624;11.698;2024-01-30T11:02:41;5.80;75.50
66928;DHT22;59882;45.624;11.698;2024-01-30T11:05:09;5.80;75.40
66928;DHT22;59882;45.624;11.698;2024-01-30T11:07:35;5.90;75.30
66928;DHT22;59882;45.624;11.698;2024-01-30T11:10:04;6.00;75.40
66928;DHT22;59882;45.624;11.698;2024-01-30T11:12:31;6.10;75.30
66928;DHT22;59882;45.624;11.698;2024-01-30T11:15:11;6.20;75.00
66928;DHT22;59882;45.624;11.698;2024-01-30T11:20:21;6.30;74.50
66928;DHT22;59882;45.624;11.698;2024-01-30T11:22:51;6.40;74.60
66928;DHT22;59882;45.624;11.698;2024-01-30T11:25:18;6.60;74.00
66928;DHT22;59882;45.624;11.698;2024-01-30T11:27:45;6.60;74.20
66928;DHT22;59882;45.624;11.698;2024-01-30T11:30:30;6.80;73.80
66928;DHT22;59882;45.624;11.698;2024-01-30T11:35:34;6.90;73.50
66928;DHT22;59882;45.624;11.698;2024-01-30T11:38:01;6.90;73.30
66928;DHT22;59882;45.624;11.698;2024-01-30T11:40:28;7.00;72.80
66928;DHT22;59882;45.624;11.698;2024-01-30T11:42:55;7.10;72.60
66928;DHT22;59882;45.624;11.698;2024-01-30T11:45:21;7.20;72.20
66928;DHT22;59882;45.624;11.698;2024-01-30T11:47:47;7.30;72.30
66928;DHT22;59882;45.624;11.698;2024-01-30T11:50:13;7.40;72.40
66928;DHT22;59882;45.624;11.698;2024-01-30T11:52:39;7.60;72.40
66928;DHT22;59882;45.624;11.698;2024-01-30T11:55:05;7.70;72.40
66928;DHT22;59882;45.624;11.698;2024-01-30T11:57:31;7.80;72.90
66928;DHT22;59882;45.624;11.698;2024-01-30T11:59:57;7.90;72.50
66928;DHT22;59882;45.624;11.698;2024-01-30T12:02:22;8.00;71.80
66928;DHT22;59882;45.624;11.698;2024-01-30T12:04:48;8.10;70.70
66928;DHT22;59882;45.624;11.698;2024-01-30T12:07:14;8.30;71.00
66928;DHT22;59882;45.624;11.698;2024-01-30T12:09:42;8.40;70.90
66928;DHT22;59882;45.624;11.698;2024-01-30T12:12:08;8.60;70.40
66928;DHT22;59882;45.624;11.698;2024-01-30T12:14:39;8.70;69.80
66928;DHT22;59882;45.624;11.698;2024-01-30T12:17:05;8.80;70.10
66928;DHT22;59882;45.624;11.698;2024-01-30T12:19:30;9.00;69.50
66928;DHT22;59882;45.624;11.698;2024-01-30T12:21:57;9.20;69.60
66928;DHT22;59882;45.624;11.698;2024-01-30T12:24:27;9.40;68.90
66928;DHT22;59882;45.624;11.698;2024-01-30T12:26:59;9.90;71.40
66928;DHT22;59882;45.624;11.698;2024-01-30T12:29:25;11.60;69.00
66928;DHT22;59882;45.624;11.698;2024-01-30T12:31:54;13.90;61.00
66928;DHT22;59882;45.624;11.698;2024-01-30T12:34:20;16.60;55.40
66928;DHT22;59882;45.624;11.698;2024-01-30T12:36:49;18.90;48.40
66928;DHT22;59882;45.624;11.698;2024-01-30T12:39:15;20.80;42.70
66928;DHT22;59882;45.624;11.698;2024-01-30T12:41:41;22.70;40.30
66928;DHT22;59882;45.624;11.698;2024-01-30T12:44:07;24.00;35.80
66928;DHT22;59882;45.624;11.698;2024-01-30T12:46:34;25.60;33.40
66928;DHT22;59882;45.624;11.698;2024-01-30T12:49:00;26.90;28.60
66928;DHT22;59882;45.624;11.698;2024-01-30T12:51:26;27.90;28.90
66928;DHT22;59882;45.624;11.698;2024-01-30T12:53:51;28.90;27.30
66928;DHT22;59882;45.624;11.698;2024-01-30T12:56:17;29.70;23.60
66928;DHT22;59882;45.624;11.698;2024-01-30T12:58:42;30.40;25.50
66928;DHT22;59882;45.624;11.698;2024-01-30T13:01:08;30.80;23.00
66928;DHT22;59882;45.624;11.698;2024-01-30T13:03:35;31.20;21.60
66928;DHT22;59882;45.624;11.698;2024-01-30T13:06:00;31.60;22.20
66928;DHT22;59882;45.624;11.698;2024-01-30T13:08:26;31.80;20.70
66928;DHT22;59882;45.624;11.698;2024-01-30T13:10:52;32.00;21.40
66928;DHT22;59882;45.624;11.698;2024-01-30T13:13:17;31.90;21.40
66928;DHT22;59882;45.624;11.698;2024-01-30T13:15:43;32.10;21.80
66928;DHT22;59882;45.624;11.698;2024-01-30T13:18:08;32.40;19.80
66928;DHT22;59882;45.624;11.698;2024-01-30T13:20:34;32.60;19.50
66928;DHT22;59882;45.624;11.698;2024-01-30T13:22:59;32.80;21.00
66928;DHT22;59882;45.624;11.698;2024-01-30T13:25:25;33.00;21.30
66928;DHT22;59882;45.624;11.698;2024-01-30T13:27:51;33.10;20.20
66928;DHT22;59882;45.624;11.698;2024-01-30T13:30:17;33.10;20.10
66928;DHT22;59882;45.624;11.698;2024-01-30T13:32:42;33.00;21.10
66928;DHT22;59882;45.624;11.698;2024-01-30T13:35:09;32.80;20.90
66928;DHT22;59882;45.624;11.698;2024-01-30T13:37:35;32.60;19.40
66928;DHT22;59882;45.624;11.698;2024-01-30T13:40:03;32.40;20.80
66928;DHT22;59882;45.624;11.698;2024-01-30T13:42:32;32.10;21.10
66928;DHT22;59882;45.624;11.698;2024-01-30T13:44:58;31.90;19.90
66928;DHT22;59882;45.624;11.698;2024-01-30T13:47:24;31.50;21.70
66928;DHT22;59882;45.624;11.698;2024-01-30T13:49:50;31.00;21.90
66928;DHT22;59882;45.624;11.698;2024-01-30T13:52:18;30.40;22.30
66928;DHT22;59882;45.624;11.698;2024-01-30T13:54:43;29.90;21.80
66928;DHT22;59882;45.624;11.698;2024-01-30T13:57:09;29.20;23.30
66928;DHT22;59882;45.624;11.698;2024-01-30T13:59:35;28.60;22.90
66928;DHT22;59882;45.624;11.698;2024-01-30T14:02:00;28.10;24.60
66928;DHT22;59882;45.624;11.698;2024-01-30T14:04:26;27.50;24.90
66928;DHT22;59882;45.624;11.698;2024-01-30T14:06:51;27.00;24.50
66928;DHT22;59882;45.624;11.698;2024-01-30T14:09:17;26.40;26.10
66928;DHT22;59882;45.624;11.698;2024-01-30T14:11:43;25.60;26.60
66928;DHT22;59882;45.624;11.698;2024-01-30T14:14:09;24.90;28.00
66928;DHT22;59882;45.624;11.698;2024-01-30T14:16:34;24.70;27.90
66928;DHT22;59882;45.624;11.698;2024-01-30T14:19:00;24.60;28.50
66928;DHT22;59882;45.624;11.698;2024-01-30T14:21:26;24.60;28.00
66928;DHT22;59882;45.624;11.698;2024-01-30T14:23:51;24.60;28.70
66928;DHT22;59882;45.624;11.698;2024-01-30T14:26:17;24.30;28.60
66928;DHT22;59882;45.624;11.698;2024-01-30T14:28:43;23.50;29.40
66928;DHT22;59882;45.624;11.698;2024-01-30T14:31:11;22.70;30.50
66928;DHT22;59882;45.624;11.698;2024-01-30T14:33:37;21.60;31.50
66928;DHT22;59882;45.624;11.698;2024-01-30T14:36:03;20.40;33.10
66928;DHT22;59882;45.624;11.698;2024-01-30T14:38:29;19.40;34.40
66928;DHT22;59882;45.624;11.698;2024-01-30T14:40:54;18.50;36.00
66928;DHT22;59882;45.624;11.698;2024-01-30T14:43:20;17.80;37.40
66928;DHT22;59882;45.624;11.698;2024-01-30T14:45:45;17.00;38.60
66928;DHT22;59882;45.624;11.698;2024-01-30T14:48:14;16.30;41.00
66928;DHT22;59882;45.624;11.698;2024-01-30T14:50:40;15.70;41.80
66928;DHT22;59882;45.624;11.698;2024-01-30T14:53:05;15.20;42.90
66928;DHT22;59882;45.624;11.698;2024-01-30T14:55:32;14.70;43.80
66928;DHT22;59882;45.624;11.698;2024-01-30T14:57:58;14.40;44.60
66928;DHT22;59882;45.624;11.698;2024-01-30T15:00:24;14.10;45.20
66928;DHT22;59882;45.624;11.698;2024-01-30T15:02:50;13.70;46.30
66928;DHT22;59882;45.624;11.698;2024-01-30T15:05:16;13.40;48.10
66928;DHT22;59882;45.624;11.698;2024-01-30T15:07:42;13.20;48.80
66928;DHT22;59882;45.624;11.698;2024-01-30T15:10:08;12.90;49.50
66928;DHT22;59882;45.624;11.698;2024-01-30T15:12:35;12.70;49.90
66928;DHT22;59882;45.624;11.698;2024-01-30T15:15:01;12.50;50.10
66928;DHT22;59882;45.624;11.698;2024-01-30T15:17:26;12.30;50.70
66928;DHT22;59882;45.624;11.698;2024-01-30T15:19:52;12.20;52.30
66928;DHT22;59882;45.624;11.698;2024-01-30T15:22:18;12.00;51.70
66928;DHT22;59882;45.624;11.698;2024-01-30T15:24:44;11.90;53.30
66928;DHT22;59882;45.624;11.698;2024-01-30T15:27:09;11.70;52.30